x

Sentry Shoal (46131) Wave Buoy

11:00 - Sat 10th Dec 2016 All times are PST. -8 hours from GMT.

  • Sig Wave height 1.3ft
  • Peak Period 3s
  • Wind
    18mph, 22mph gusts
  • Sea Temp 46°f
  • Luft Temp 39°f
  • Sea Pressure 1007.8mb
  • Sentry Shoal
  • Sentry Shoal

More Historic Weather Station data

Upgrade to MSW Pro to gain access to the past 30 days of data for over 8000 Wavebouys and Weather Stations around the globe.

Join Pro

Comparision Forecast

View Surf forecast
   
Sa 12/10 11:00 1.3ft 3s 18 22 mph 1007.8mb 46f 39f
10:00 0.3ft 2s 4 7 mph 1008.6mb 46f 37f
9:00 0.3ft 2s 4 9 mph 1008.6mb 46f 36f
8:00 0.3ft 2s 2 4 mph 1008.5mb 46f 38f
7:00 0.3ft 3s 2 4 mph 1008.7mb 46f 37f
6:00 0.3ft 4s 4 7 mph 1008.6mb 46f 37f
5:00 0.7ft 4s 2 4 mph 1008.8mb 46f 37f
4:00 1.3ft 4s 4
mph
1008.9mb 46f 37f
3:00 1.3ft 5s 4 7 mph 1009.1mb 46f 36f
2:00 1.3ft 4s 4
mph
1008.9mb 46f 36f
1:00 1.6ft 5s 4 7 mph 1008.9mb 45f 35f
12:00 1.6ft 5s 2 4 mph 1008.7mb 45f 34f
Fr 12/09 11:00 1.6ft 5s 4 7 mph 1008.5mb 46f 35f
10:00 2.5ft 5s 4 7 mph 1008.6mb 46f 35f
9:00 2.5ft 5s 4 7 mph 1008.8mb 46f 34f
8:00 3ft 5s 7 13 mph 1009mb 46f 35f
7:00 3.5ft 5s 11 16 mph 1009.1mb 47f 37f
6:00 3ft 5s 9 11 mph 1009.6mb 47f 38f
5:00 3.5ft 5s 11 16 mph 1010.4mb 47f 36f
4:00 4ft 5s 13 18 mph 1011.1mb 47f 37f
3:00 4.5ft 5s 16 27 mph 1011.4mb 47f 37f
2:00 4.5ft 6s 20 25 mph 1011.5mb 47f 38f
1:00 4.5ft 5s 20 25 mph 1012mb 47f 38f
12:00 3.5ft 6s 16 20 mph 1012.8mb 47f 37f
11:00 3.5ft 5s 13 16 mph 1013.7mb 47f 35f
10:00 3ft 5s 13 18 mph 1014.1mb 47f 35f
9:00 3ft 5s 18 20 mph 1013.9mb 47f 35f
8:00 3.5ft 5s 16 20 mph 1014.2mb 47f 35f
7:00 3.5ft 5s 18 22 mph 1014mb 47f 35f
6:00 3.5ft 5s 22 25 mph 1014.1mb 47f 35f
5:00 3.5ft 5s 20 27 mph 1014.2mb 47f 35f
4:00 3.5ft 5s 18 22 mph 1014.5mb 47f 33f
3:00 2.5ft 4s 25 29 mph 1014.9mb 47f 35f
2:00 1ft 2s 18 22 mph 1014.9mb 47f 35f
1:00 0.7ft 2s 9 16 mph 1014.9mb 47f 36f
12:00 0.3ft 2s 11 13 mph 1014.7mb 47f 36f
Do 12/08 11:00 0.3ft 6s 9 11 mph 1014.7mb 46f 35f
10:00 0.3ft 3s 4 7 mph 1015.1mb 47f 35f
9:00 0.3ft 3s  -  2 mph 1015.3mb 46f 35f
8:00 0.3ft 2s 2 4 mph 1015.5mb 47f 34f
7:00 0.7ft 2s 4 9 mph 1016mb 46f 34f
6:00 0.7ft 2s 7 9 mph 1016.4mb 46f 34f
5:00 0.7ft 3s 11 13 mph 1016.3mb 46f 34f
4:00 0.7ft 3s 4 9 mph 1016.6mb 46f 33f
3:00 0.7ft 2s 9 13 mph 1017.3mb 46f 33f
2:00 0.3ft 2s 7 11 mph 1018.1mb 46f 33f
1:00 0.3ft 2s 7 11 mph 1019.1mb 46f 33f
12:00 0.3ft 3s 9 11 mph 1020.1mb 46f 32f
11:00 0.3ft 2s 4 9 mph 1021.1mb 46f 33f
10:00 0.7ft 2s 2 7 mph 1021.7mb 46f 33f
9:00 0.3ft 2s 9 11 mph 1022.3mb 46f 33f
8:00 0.7ft 2s 7 13 mph 1022.8mb 46f 33f
7:00 0.7ft 2s 9 13 mph 1023.7mb 46f 32f
6:00 0.3ft 2s 7 9 mph 1024.4mb 46f 33f
5:00 0.7ft 2s 4 9 mph 1024.9mb 46f 33f
4:00 0.7ft 2s 7 11 mph 1025.7mb 46f 33f
3:00 0.7ft 2s 9 11 mph 1026.2mb 46f 33f
2:00 0.7ft 2s 4 7 mph 1026.6mb 46f 34f
1:00 0.7ft 2s 7 11 mph 1027.3mb 46f 33f
12:00 0.7ft 2s 9 11 mph 1027.8mb 47f 33f
Mi 12/07 11:00 0.7ft 3s 4 9 mph 1028.6mb 47f 33f
10:00 0.7ft 3s 7 9 mph 1029.2mb 46f 33f
9:00 0.7ft 2s 9 11 mph 1029.4mb 46f 33f
8:00 0.7ft 2s 9 13 mph 1030mb 46f 34f
7:00 0.7ft 2s 9 11 mph 1030.3mb 46f 34f
6:00 0.7ft 2s 9 13 mph 1030.7mb 46f 35f
5:00 0.7ft 3s 7 11 mph 1031.3mb 46f 35f
4:00 0.7ft 3s 9 11 mph 1031.4mb 46f 35f
3:00 0.7ft 3s 2 9 mph 1031.8mb 46f 36f
2:00 1ft 4s 9 13 mph 1032mb 46f 35f
1:00 1.3ft 4s 9 13 mph 1032.2mb 46f 35f
12:00 1.3ft 4s 7 11 mph 1032.5mb 46f 35f
11:00 1.3ft 4s 7 16 mph 1032.8mb 46f 34f
10:00 1.6ft 4s 7 13 mph 1032.6mb 47f 34f
9:00 1.3ft 4s 4 11 mph 1032.4mb 47f 35f
8:00 1.3ft 4s 9 16 mph 1032.2mb 46f 35f
7:00 1.3ft 4s 13 18 mph 1032mb 46f 35f
6:00 1ft 2s 13 16 mph 1031.9mb 46f 35f
5:00 0.7ft 2s 9 13 mph 1031.8mb 46f 34f
4:00 0.7ft 2s 9 11 mph 1031.8mb 46f 35f
3:00 0.7ft 3s 9 13 mph 1031.7mb 46f 35f
2:00 1ft 2s 13 16 mph 1031.4mb 46f 34f
1:00 1ft 2s 13 18 mph 1030.8mb 46f 35f
12:00 1.3ft 3s 13 18 mph 1030.2mb 46f 35f
Di 12/06 11:00 1.3ft 3s 13 16 mph 1029.7mb 46f 35f
10:00 1ft 2s 13 18 mph 1028.9mb 46f 35f
9:00 1ft 3s 13 16 mph 1028.2mb 46f 36f